Time;durP1;ratioP1;P1;durP2;ratioP2;P2;SDS_P1;SDS_P2;PMS_P1;PMS_P2;Temp;Humidity;BMP_temperature;BMP_pressure;BME280_temperature;BME280_humidity;BME280_pressure;Samples;Min_cycle;Max_cycle;Signal;HPM_P1;HPM_P2
2023/01/26 00:01:56;;;;;;;53.42;25.40;;;;;;;;;;5082756;28;20071;-58
2023/01/26 00:04:22;;;;;;;54.88;26.10;;;;;;;;;;5062031;28;20036;-56
2023/01/26 00:06:49;;;;;;;49.15;22.98;;;;;;;;;;5078740;28;20047;-56
2023/01/26 00:09:15;;;;;;;56.92;25.02;;;;;;;;;;5082765;28;20053;-58
2023/01/26 00:11:41;;;;;;;56.38;26.25;;;;;;;;;;5081831;28;20082;-57
2023/01/26 00:14:10;;;;;;;50.40;23.40;;;;;;;;;;5078048;28;20036;-58
2023/01/26 00:16:36;;;;;;;56.25;26.27;;;;;;;;;;5081492;28;20036;-58
2023/01/26 00:19:03;;;;;;;56.53;25.35;;;;;;;;;;5081418;28;20050;-58
2023/01/26 00:21:29;;;;;;;52.28;24.92;;;;;;;;;;5078267;28;20043;-58
2023/01/26 00:23:55;;;;;;;55.00;25.63;;;;;;;;;;5079725;28;20031;-59
2023/01/26 00:26:22;;;;;;;58.05;26.50;;;;;;;;;;5080769;28;20375;-58
2023/01/26 00:28:48;;;;;;;62.78;26.25;;;;;;;;;;5061159;28;20338;-57
2023/01/26 00:31:16;;;;;;;52.47;24.85;;;;;;;;;;5081162;28;20038;-58
2023/01/26 00:33:42;;;;;;;57.53;25.75;;;;;;;;;;5078343;28;20036;-57
2023/01/26 00:36:08;;;;;;;62.40;26.48;;;;;;;;;;5079535;28;20032;-57
2023/01/26 00:38:35;;;;;;;63.95;27.00;;;;;;;;;;5081772;28;20074;-58
2023/01/26 00:41:01;;;;;;;60.00;26.67;;;;;;;;;;5080655;28;20063;-57
2023/01/26 00:43:27;;;;;;;53.78;24.23;;;;;;;;;;5077353;28;20522;-58
2023/01/26 00:45:53;;;;;;;61.67;27.38;;;;;;;;;;5082172;28;20036;-59
2023/01/26 00:48:19;;;;;;;60.03;26.35;;;;;;;;;;5080068;28;20044;-62
2023/01/26 00:50:45;;;;;;;60.53;25.33;;;;;;;;;;5060542;28;20044;-57
2023/01/26 00:53:11;;;;;;;59.80;26.65;;;;;;;;;;5074917;28;20047;-55
2023/01/26 00:55:37;;;;;;;59.13;25.17;;;;;;;;;;5078928;28;20170;-57
2023/01/26 00:58:07;;;;;;;55.78;24.55;;;;;;;;;;5080776;28;20350;-58
2023/01/26 01:00:35;;;;;;;54.90;23.55;;;;;;;;;;5078678;28;20046;-59
2023/01/26 01:03:02;;;;;;;54.92;25.17;;;;;;;;;;5059562;28;20468;-57
2023/01/26 01:05:31;;;;;;;50.88;23.98;;;;;;;;;;5077703;28;20041;-59
2023/01/26 01:07:57;;;;;;;56.13;25.13;;;;;;;;;;5081615;28;20044;-57
2023/01/26 01:10:23;;;;;;;46.03;21.92;;;;;;;;;;5063984;28;20051;-58
2023/01/26 01:12:49;;;;;;;54.83;23.67;;;;;;;;;;5080130;28;20062;-58
2023/01/26 01:15:16;;;;;;;55.67;24.50;;;;;;;;;;5061201;28;20050;-59
2023/01/26 01:17:42;;;;;;;58.63;25.73;;;;;;;;;;5082864;28;20052;-57
2023/01/26 01:20:09;;;;;;;52.90;23.60;;;;;;;;;;5081830;28;20521;-61
2023/01/26 01:22:35;;;;;;;55.53;23.48;;;;;;;;;;5083574;28;20089;-59
2023/01/26 01:25:02;;;;;;;49.95;22.20;;;;;;;;;;5084856;28;20413;-59
2023/01/26 01:27:28;;;;;;;54.58;23.42;;;;;;;;;;5083800;28;20528;-59
2023/01/26 01:29:55;;;;;;;53.35;23.58;;;;;;;;;;5084929;28;20137;-59
2023/01/26 01:32:21;;;;;;;51.20;21.95;;;;;;;;;;5082782;28;20368;-57
2023/01/26 01:34:48;;;;;;;62.95;26.35;;;;;;;;;;5083113;28;20040;-58
2023/01/26 01:37:15;;;;;;;55.30;23.63;;;;;;;;;;5083846;28;20036;-58
2023/01/26 01:39:48;;;;;;;53.10;23.95;;;;;;;;;;5084290;28;20056;-57
2023/01/26 01:42:14;;;;;;;54.85;23.65;;;;;;;;;;5082539;28;20472;-58
2023/01/26 01:44:42;;;;;;;57.88;24.55;;;;;;;;;;5082032;28;20032;-59
2023/01/26 01:47:19;;;;;;;51.75;23.67;;;;;;;;;;5050521;28;20050;-59
2023/01/26 01:49:47;;;;;;;60.08;26.00;;;;;;;;;;5084051;28;20036;-58
2023/01/26 01:52:17;;;;;;;57.17;24.30;;;;;;;;;;5079599;28;20041;-59
2023/01/26 01:54:53;;;;;;;57.25;24.05;;;;;;;;;;5082036;28;20056;-59
2023/01/26 01:57:28;;;;;;;64.05;25.42;;;;;;;;;;5082125;28;20074;-57
2023/01/26 02:00:07;;;;;;;61.33;25.00;;;;;;;;;;5064475;28;20082;-60
2023/01/26 02:02:34;;;;;;;55.95;24.33;;;;;;;;;;5083385;28;20373;-58
2023/01/26 02:05:03;;;;;;;65.78;25.10;;;;;;;;;;5080718;28;20149;-58
2023/01/26 02:07:30;;;;;;;64.15;26.05;;;;;;;;;;5083087;28;20448;-56
2023/01/26 02:12:41;;;;;;;64.10;26.63;;;;;;;;;;5080174;28;20075;-57
2023/01/26 02:15:07;;;;;;;61.78;25.52;;;;;;;;;;5083172;28;20405;-59
2023/01/26 02:17:33;;;;;;;55.83;24.52;;;;;;;;;;5083254;28;20059;-58
2023/01/26 02:20:04;;;;;;;55.50;23.23;;;;;;;;;;5083722;28;20515;-58
2023/01/26 02:22:45;;;;;;;57.30;24.85;;;;;;;;;;5078535;28;20117;-61
2023/01/26 02:25:37;;;;;;;65.93;27.23;;;;;;;;;;5083645;28;20085;-60
2023/01/26 02:28:03;;;;;;;63.88;26.35;;;;;;;;;;5076914;28;20067;-57
2023/01/26 02:30:30;;;;;;;60.40;25.25;;;;;;;;;;5085221;28;20035;-59
2023/01/26 02:32:56;;;;;;;55.25;23.83;;;;;;;;;;5080370;28;20127;-60
2023/01/26 02:35:22;;;;;;;62.90;25.38;;;;;;;;;;5083546;28;20075;-58
2023/01/26 02:37:49;;;;;;;55.30;24.35;;;;;;;;;;5083188;28;20249;-58
2023/01/26 02:40:28;;;;;;;58.70;23.70;;;;;;;;;;5083239;28;20047;-58
2023/01/26 02:42:54;;;;;;;51.15;23.00;;;;;;;;;;5078485;28;20368;-58
2023/01/26 02:45:21;;;;;;;59.28;24.95;;;;;;;;;;5064215;28;20127;-57
2023/01/26 02:47:47;;;;;;;58.28;25.25;;;;;;;;;;5082119;28;20032;-58
2023/01/26 02:50:13;;;;;;;55.53;24.95;;;;;;;;;;5083553;28;20131;-59
2023/01/26 02:52:39;;;;;;;60.45;24.67;;;;;;;;;;5082057;28;20039;-58
2023/01/26 02:55:22;;;;;;;56.05;25.13;;;;;;;;;;5063506;28;20131;-60
2023/01/26 02:57:49;;;;;;;62.47;25.23;;;;;;;;;;5080943;28;20048;-58
2023/01/26 03:00:21;;;;;;;69.53;26.00;;;;;;;;;;5083807;28;20044;-58
2023/01/26 03:02:48;;;;;;;62.70;25.17;;;;;;;;;;5079537;28;20043;-58
2023/01/26 03:05:14;;;;;;;59.47;25.15;;;;;;;;;;5081367;28;20695;-58
2023/01/26 03:07:40;;;;;;;57.33;23.65;;;;;;;;;;5080105;28;20040;-59
2023/01/26 03:10:06;;;;;;;68.70;27.05;;;;;;;;;;5083885;28;20044;-60
2023/01/26 03:12:32;;;;;;;57.13;25.05;;;;;;;;;;5079557;28;20044;-59
2023/01/26 03:27:25;;;;;;;65.15;26.67;;;;;;;;;;5039783;28;20376;-57
2023/01/26 03:28:54;;;;;;;60.00;24.67;;;;;;;;;;5077935;28;20075;-58
2023/01/26 03:31:20;;;;;;;56.95;25.15;;;;;;;;;;5081449;28;20040;-55
2023/01/26 03:33:46;;;;;;;58.00;25.23;;;;;;;;;;5080736;28;20075;-62
2023/01/26 03:36:12;;;;;;;50.35;22.30;;;;;;;;;;5080600;28;20097;-58
2023/01/26 03:38:41;;;;;;;52.88;22.88;;;;;;;;;;5081635;28;20139;-59
2023/01/26 03:57:35;;;;;;;44.08;20.05;;;;;;;;;;5077071;28;20102;-57
2023/01/26 04:00:01;;;;;;;46.83;21.00;;;;;;;;;;5080403;28;20040;-56
2023/01/26 04:08:20;;;;;;;47.13;21.50;;;;;;;;;;5078272;28;20612;-59
2023/01/26 04:10:46;;;;;;;43.42;20.48;;;;;;;;;;5080024;28;20163;-58
2023/01/26 04:21:30;;;;;;;49.88;22.40;;;;;;;;;;5079253;28;20412;-57
2023/01/26 04:23:57;;;;;;;51.83;23.45;;;;;;;;;;5080634;28;20032;-59
2023/01/26 04:26:33;;;;;;;48.03;21.73;;;;;;;;;;5080379;28;20556;-59
2023/01/26 04:28:59;;;;;;;43.42;21.73;;;;;;;;;;5078355;28;20075;-59
2023/01/26 04:31:25;;;;;;;45.88;21.27;;;;;;;;;;5080369;28;20486;-59
2023/01/26 04:33:51;;;;;;;46.22;22.27;;;;;;;;;;5076049;28;20128;-58
2023/01/26 04:36:17;;;;;;;49.70;22.60;;;;;;;;;;5079354;28;20070;-60
2023/01/26 04:38:43;;;;;;;50.95;22.38;;;;;;;;;;5080319;28;20444;-60
2023/01/26 04:41:22;;;;;;;50.97;22.58;;;;;;;;;;5079511;28;20072;-58
2023/01/26 04:43:48;;;;;;;46.20;22.25;;;;;;;;;;5079648;28;20040;-57
2023/01/26 04:46:19;;;;;;;46.85;21.02;;;;;;;;;;5080300;28;20032;-57
2023/01/26 04:48:45;;;;;;;47.78;21.67;;;;;;;;;;5079003;28;20048;-56
2023/01/26 04:51:13;;;;;;;52.45;24.00;;;;;;;;;;5079136;28;20097;-56
2023/01/26 04:53:39;;;;;;;48.90;22.30;;;;;;;;;;5079454;28;20150;-57
2023/01/26 04:56:05;;;;;;;51.30;22.75;;;;;;;;;;5079588;28;20103;-58
2023/01/26 04:58:32;;;;;;;54.08;23.05;;;;;;;;;;5081012;28;20040;-58
2023/01/26 05:00:58;;;;;;;45.63;22.00;;;;;;;;;;5080970;28;20120;-58
2023/01/26 05:03:25;;;;;;;55.50;23.38;;;;;;;;;;5076611;28;20064;-56
2023/01/26 05:05:52;;;;;;;54.65;21.75;;;;;;;;;;5079406;28;20036;-57
2023/01/26 05:08:19;;;;;;;46.70;22.40;;;;;;;;;;5081101;28;20062;-58
2023/01/26 05:10:45;;;;;;;51.55;23.10;;;;;;;;;;5079352;28;20032;-57
2023/01/26 05:13:12;;;;;;;54.08;22.17;;;;;;;;;;5078861;28;20046;-58
2023/01/26 05:15:40;;;;;;;52.72;22.55;;;;;;;;;;5078197;28;20040;-59
2023/01/26 05:18:06;;;;;;;58.05;24.88;;;;;;;;;;5061351;28;20059;-59
2023/01/26 05:20:32;;;;;;;52.45;23.30;;;;;;;;;;5081964;28;20036;-58
2023/01/26 05:22:58;;;;;;;49.75;22.75;;;;;;;;;;5079864;28;20466;-58
2023/01/26 05:25:24;;;;;;;58.65;24.77;;;;;;;;;;5078593;28;20033;-58
2023/01/26 05:27:51;;;;;;;63.17;24.02;;;;;;;;;;5080330;28;20109;-58
2023/01/26 05:30:18;;;;;;;56.28;24.95;;;;;;;;;;5080576;28;20368;-57
2023/01/26 05:32:44;;;;;;;54.08;24.33;;;;;;;;;;5077088;28;20044;-60
2023/01/26 05:35:10;;;;;;;56.47;25.02;;;;;;;;;;5081671;28;20313;-60
2023/01/26 05:37:36;;;;;;;56.13;24.98;;;;;;;;;;5079165;28;20391;-57
2023/01/26 05:40:02;;;;;;;57.10;24.42;;;;;;;;;;5079068;28;20110;-59
2023/01/26 05:42:28;;;;;;;51.65;23.83;;;;;;;;;;5081765;28;20032;-57
2023/01/26 05:44:54;;;;;;;63.97;26.05;;;;;;;;;;5078081;28;20033;-58
2023/01/26 05:47:20;;;;;;;52.22;25.27;;;;;;;;;;5081393;28;20055;-58
2023/01/26 05:49:46;;;;;;;53.97;24.52;;;;;;;;;;5079722;28;20036;-58
2023/01/26 05:52:15;;;;;;;67.60;26.33;;;;;;;;;;5078105;28;20451;-57
2023/01/26 05:54:41;;;;;;;74.07;27.60;;;;;;;;;;5078490;28;20536;-58
2023/01/26 05:57:07;;;;;;;62.58;27.23;;;;;;;;;;5064435;28;20156;-59
2023/01/26 05:59:33;;;;;;;67.43;27.63;;;;;;;;;;5055807;28;20037;-58
2023/01/26 06:02:02;;;;;;;57.42;24.65;;;;;;;;;;5061390;28;20055;-59
2023/01/26 06:04:28;;;;;;;63.67;25.80;;;;;;;;;;5079555;28;20451;-60
2023/01/26 06:06:54;;;;;;;66.75;26.60;;;;;;;;;;5081809;28;20048;-58
2023/01/26 06:09:20;;;;;;;62.13;26.48;;;;;;;;;;5067193;28;20490;-59
2023/01/26 06:11:46;;;;;;;63.08;27.08;;;;;;;;;;5081765;28;20036;-59
2023/01/26 06:14:13;;;;;;;57.28;25.67;;;;;;;;;;5072972;28;20119;-58
2023/01/26 06:16:39;;;;;;;73.85;29.80;;;;;;;;;;5059480;28;20437;-58
2023/01/26 06:19:05;;;;;;;68.78;26.23;;;;;;;;;;5085948;28;20036;-56
2023/01/26 06:21:31;;;;;;;64.40;26.58;;;;;;;;;;5081749;28;20054;-57
2023/01/26 06:23:57;;;;;;;69.30;27.35;;;;;;;;;;5086397;28;20051;-59
2023/01/26 06:26:24;;;;;;;67.30;26.65;;;;;;;;;;5087733;28;20419;-59
2023/01/26 06:28:51;;;;;;;72.65;28.50;;;;;;;;;;5083613;28;20035;-59
2023/01/26 06:31:17;;;;;;;68.38;28.00;;;;;;;;;;5080648;28;20467;-57
2023/01/26 06:33:43;;;;;;;79.05;29.88;;;;;;;;;;5083816;28;20557;-60
2023/01/26 06:36:10;;;;;;;77.50;29.80;;;;;;;;;;5084302;28;20134;-60
2023/01/26 06:38:53;;;;;;;80.53;30.70;;;;;;;;;;5082509;28;20367;-58
2023/01/26 06:41:19;;;;;;;70.63;29.48;;;;;;;;;;5081081;28;20055;-58
2023/01/26 06:43:46;;;;;;;68.65;28.98;;;;;;;;;;5075258;28;20042;-56
2023/01/26 06:46:12;;;;;;;72.50;30.15;;;;;;;;;;5083535;28;20032;-58
2023/01/26 06:48:38;;;;;;;73.65;28.15;;;;;;;;;;5083834;28;20329;-59
2023/01/26 06:51:24;;;;;;;92.97;32.08;;;;;;;;;;5084152;28;20492;-56
2023/01/26 06:53:54;;;;;;;86.38;30.85;;;;;;;;;;5081752;28;20041;-57
2023/01/26 06:56:21;;;;;;;85.95;31.73;;;;;;;;;;5084137;28;20040;-57
2023/01/26 06:58:47;;;;;;;82.90;30.70;;;;;;;;;;5083904;28;20086;-59
2023/01/26 07:01:20;;;;;;;71.03;28.98;;;;;;;;;;5082334;28;20157;-60
2023/01/26 07:03:53;;;;;;;94.38;31.38;;;;;;;;;;5082742;28;20120;-58
2023/01/26 07:06:19;;;;;;;92.25;31.30;;;;;;;;;;5081674;28;20040;-59
2023/01/26 07:08:45;;;;;;;81.72;28.95;;;;;;;;;;5082019;28;20050;-59
2023/01/26 07:11:11;;;;;;;113.07;35.47;;;;;;;;;;5084093;28;20065;-57
2023/01/26 07:13:37;;;;;;;88.80;31.13;;;;;;;;;;5067231;28;20071;-60
2023/01/26 07:16:04;;;;;;;102.97;33.58;;;;;;;;;;5069935;28;20039;-59
2023/01/26 07:18:31;;;;;;;94.07;32.70;;;;;;;;;;5081049;28;20032;-59
2023/01/26 07:21:06;;;;;;;94.65;32.03;;;;;;;;;;5083822;28;20037;-57
2023/01/26 07:23:32;;;;;;;;;;;;;;;;;;5062046;28;20031;-58
2023/01/26 07:25:58;;;;;;;110.05;33.20;;;;;;;;;;5080792;28;20309;-57
2023/01/26 07:28:24;;;;;;;99.85;32.83;;;;;;;;;;5082365;28;20059;-59
2023/01/26 07:30:51;;;;;;;101.88;33.35;;;;;;;;;;5079180;28;20360;-59
2023/01/26 07:33:17;;;;;;;93.13;30.55;;;;;;;;;;5075917;28;20037;-55
2023/01/26 07:35:43;;;;;;;107.80;33.90;;;;;;;;;;5063164;28;20036;-60
2023/01/26 07:38:10;;;;;;;118.20;32.83;;;;;;;;;;5063542;28;20498;-59
2023/01/26 07:40:36;;;;;;;116.25;31.23;;;;;;;;;;5066350;28;20060;-57
2023/01/26 07:43:02;;;;;;;125.30;33.58;;;;;;;;;;5063215;28;20036;-57
2023/01/26 07:45:36;;;;;;;111.68;32.58;;;;;;;;;;5064553;28;20044;-57
2023/01/26 07:48:02;;;;;;;124.88;31.92;;;;;;;;;;5062349;28;20041;-58
2023/01/26 07:50:28;;;;;;;116.47;31.90;;;;;;;;;;5073144;28;20044;-57
2023/01/26 07:52:54;;;;;;;105.93;31.70;;;;;;;;;;5061606;28;20043;-59
2023/01/26 07:55:22;;;;;;;123.28;32.92;;;;;;;;;;5079194;28;20043;-57
2023/01/26 07:57:48;;;;;;;119.68;30.70;;;;;;;;;;5080781;28;20040;-59
2023/01/26 08:00:14;;;;;;;123.70;31.23;;;;;;;;;;5083006;28;20427;-57
2023/01/26 08:02:40;;;;;;;92.95;30.17;;;;;;;;;;5081002;28;20381;-58
2023/01/26 08:05:07;;;;;;;113.32;30.92;;;;;;;;;;5080604;28;20040;-57
2023/01/26 08:07:33;;;;;;;102.60;29.92;;;;;;;;;;5080335;28;20363;-58
2023/01/26 08:09:59;;;;;;;99.93;28.92;;;;;;;;;;5064660;28;20410;-57
2023/01/26 08:12:25;;;;;;;82.10;26.88;;;;;;;;;;5080793;28;20452;-57
2023/01/26 08:14:51;;;;;;;89.43;28.48;;;;;;;;;;5080539;28;20040;-57
2023/01/26 08:17:17;;;;;;;76.22;26.48;;;;;;;;;;5080952;28;20041;-58
2023/01/26 08:19:44;;;;;;;87.10;28.70;;;;;;;;;;5061299;28;20036;-57
2023/01/26 08:22:10;;;;;;;79.68;26.75;;;;;;;;;;5083388;28;20486;-58
2023/01/26 08:24:37;;;;;;;79.78;27.55;;;;;;;;;;5059870;28;20048;-57
2023/01/26 08:27:03;;;;;;;79.97;26.77;;;;;;;;;;5080859;28;20028;-60
2023/01/26 08:29:29;;;;;;;87.80;26.55;;;;;;;;;;5079322;28;20036;-59
2023/01/26 08:31:55;;;;;;;80.38;25.73;;;;;;;;;;5074424;28;20052;-56
2023/01/26 08:34:21;;;;;;;72.45;25.98;;;;;;;;;;5071095;28;20028;-58
2023/01/26 08:36:48;;;;;;;79.97;26.25;;;;;;;;;;5084739;28;20036;-59
2023/01/26 08:39:15;;;;;;;64.63;23.40;;;;;;;;;;5079996;28;20435;-59
2023/01/26 08:41:41;;;;;;;70.13;23.83;;;;;;;;;;5080935;28;20040;-58
2023/01/26 08:44:09;;;;;;;67.22;22.13;;;;;;;;;;5075845;28;20028;-59
2023/01/26 08:47:00;;;;;;;67.57;21.00;;;;;;;;;;5091108;28;20036;-58
2023/01/26 08:49:26;;;;;;;69.88;20.52;;;;;;;;;;5079221;28;20071;-59
2023/01/26 08:51:52;;;;;;;53.00;18.90;;;;;;;;;;5079138;28;20486;-58
2023/01/26 08:54:20;;;;;;;57.10;18.38;;;;;;;;;;5060236;28;20057;-57
2023/01/26 08:56:50;;;;;;;55.67;18.85;;;;;;;;;;5081933;28;20040;-57
2023/01/26 08:59:17;;;;;;;47.45;15.57;;;;;;;;;;5087918;28;20028;-58
2023/01/26 09:01:45;;;;;;;54.00;15.77;;;;;;;;;;5083573;28;20115;-55
2023/01/26 09:04:10;;;;;;;54.28;16.35;;;;;;;;;;5076939;28;20040;-57
2023/01/26 09:06:36;;;;;;;62.17;17.63;;;;;;;;;;5069994;28;20105;-57
2023/01/26 09:09:03;;;;;;;47.05;15.80;;;;;;;;;;5079273;28;20032;-58
2023/01/26 09:11:29;;;;;;;49.70;15.40;;;;;;;;;;5064050;28;20040;-57
2023/01/26 09:13:57;;;;;;;48.30;15.23;;;;;;;;;;5085418;28;20094;-58
2023/01/26 09:16:24;;;;;;;53.25;14.98;;;;;;;;;;5086628;28;20534;-59
2023/01/26 09:18:53;;;;;;;48.90;16.40;;;;;;;;;;5067715;28;20040;-58
2023/01/26 09:21:20;;;;;;;45.70;15.27;;;;;;;;;;5075767;28;20040;-58
2023/01/26 09:23:46;;;;;;;42.03;13.93;;;;;;;;;;5063789;28;20040;-57
2023/01/26 09:26:12;;;;;;;43.97;12.95;;;;;;;;;;5079804;28;20079;-57
2023/01/26 09:28:38;;;;;;;43.58;12.77;;;;;;;;;;5076702;28;20080;-57
2023/01/26 09:31:05;;;;;;;46.80;14.20;;;;;;;;;;5082755;28;20045;-57
2023/01/26 09:33:31;;;;;;;45.38;11.48;;;;;;;;;;5068956;28;20454;-58
2023/01/26 09:36:02;;;;;;;39.20;11.70;;;;;;;;;;5094153;28;20047;-58
2023/01/26 09:38:31;;;;;;;46.67;11.32;;;;;;;;;;5084870;28;20048;-57
2023/01/26 09:41:05;;;;;;;37.97;10.57;;;;;;;;;;5083458;28;20137;-56
2023/01/26 09:43:45;;;;;;;38.92;10.57;;;;;;;;;;5060777;28;20043;-55
2023/01/26 09:46:17;;;;;;;35.10;10.40;;;;;;;;;;5080574;28;20033;-57
2023/01/26 09:48:46;;;;;;;40.60;10.82;;;;;;;;;;5096202;28;20379;-59
2023/01/26 09:51:33;;;;;;;39.63;9.73;;;;;;;;;;5092061;28;20105;-58
2023/01/26 09:54:03;;;;;;;38.15;9.02;;;;;;;;;;5089027;28;20068;-57
2023/01/26 09:56:31;;;;;;;37.83;9.23;;;;;;;;;;5069681;28;20046;-58
2023/01/26 09:59:16;;;;;;;29.63;9.02;;;;;;;;;;5081576;28;20044;-58
2023/01/26 10:01:53;;;;;;;35.55;8.77;;;;;;;;;;5077470;28;20087;-58
2023/01/26 10:04:31;;;;;;;29.45;8.30;;;;;;;;;;5076753;28;20169;-59
2023/01/26 10:06:58;;;;;;;35.55;7.88;;;;;;;;;;5084108;28;20060;-59
2023/01/26 10:09:26;;;;;;;33.88;8.18;;;;;;;;;;5085388;28;20468;-57
2023/01/26 10:11:57;;;;;;;33.30;7.15;;;;;;;;;;5056633;28;20047;-58
2023/01/26 10:14:39;;;;;;;34.40;6.35;;;;;;;;;;5087633;28;20049;-58
2023/01/26 10:17:07;;;;;;;27.52;6.07;;;;;;;;;;5079128;28;20373;-58
2023/01/26 10:19:39;;;;;;;32.55;5.32;;;;;;;;;;5071478;28;20032;-58
2023/01/26 10:22:11;;;;;;;24.13;5.28;;;;;;;;;;5091110;28;20046;-59
2023/01/26 10:24:38;;;;;;;29.88;5.72;;;;;;;;;;5056916;28;20453;-59
2023/01/26 10:27:10;;;;;;;31.80;5.90;;;;;;;;;;5077136;28;20112;-59
2023/01/26 10:29:35;;;;;;;28.33;6.10;;;;;;;;;;5078254;28;20040;-60
2023/01/26 10:32:03;;;;;;;34.25;6.75;;;;;;;;;;5083619;28;20036;-59
2023/01/26 10:34:29;;;;;;;33.08;5.15;;;;;;;;;;5091194;28;20043;-59
2023/01/26 10:37:25;;;;;;;26.67;4.68;;;;;;;;;;5082752;28;20082;-58
2023/01/26 10:39:59;;;;;;;24.55;4.70;;;;;;;;;;5040954;28;20052;-58
2023/01/26 10:42:27;;;;;;;27.38;5.47;;;;;;;;;;5062224;28;20037;-58
2023/01/26 10:44:53;;;;;;;31.10;5.55;;;;;;;;;;5063217;28;20130;-59
2023/01/26 10:47:22;;;;;;;21.63;4.47;;;;;;;;;;5066077;28;20032;-57
2023/01/26 10:49:48;;;;;;;28.00;5.15;;;;;;;;;;5061122;28;20461;-58
2023/01/26 10:52:23;;;;;;;33.38;4.75;;;;;;;;;;5062090;28;20044;-57
2023/01/26 10:55:08;;;;;;;30.35;5.18;;;;;;;;;;5055595;28;20048;-58
2023/01/26 10:57:39;;;;;;;36.72;5.28;;;;;;;;;;5058851;28;20169;-57
2023/01/26 11:00:09;;;;;;;27.73;4.38;;;;;;;;;;5065230;28;20045;-59
2023/01/26 11:02:35;;;;;;;27.75;4.47;;;;;;;;;;5027382;28;20472;-58
2023/01/26 11:05:07;;;;;;;27.63;4.03;;;;;;;;;;5059680;28;20036;-58
2023/01/26 11:07:38;;;;;;;28.95;4.70;;;;;;;;;;5044957;28;20047;-57
2023/01/26 11:10:23;;;;;;;25.65;5.28;;;;;;;;;;5063857;28;20032;-58
2023/01/26 11:12:50;;;;;;;;;;;;;;;;;;5070900;28;20097;-57
2023/01/26 11:15:24;;;;;;;23.38;4.55;;;;;;;;;;5059704;28;19978;-57
2023/01/26 11:17:54;;;;;;;26.10;5.15;;;;;;;;;;5058169;28;20040;-57
2023/01/26 11:20:28;;;;;;;22.55;4.68;;;;;;;;;;5042615;28;20056;-58
2023/01/26 11:23:04;;;;;;;18.60;3.53;;;;;;;;;;5058366;28;20037;-58
2023/01/26 11:25:35;;;;;;;26.55;5.18;;;;;;;;;;5047328;28;20067;-58
2023/01/26 11:28:12;;;;;;;26.30;5.00;;;;;;;;;;5040438;28;20110;-58
2023/01/26 11:30:56;;;;;;;27.33;3.92;;;;;;;;;;5066320;28;20079;-58
2023/01/26 11:33:28;;;;;;;21.02;4.43;;;;;;;;;;5037273;28;20056;-57
2023/01/26 11:36:00;;;;;;;20.88;4.05;;;;;;;;;;5047782;28;20048;-58
2023/01/26 11:38:32;;;;;;;19.58;4.20;;;;;;;;;;5072423;28;20056;-58
2023/01/26 11:41:10;;;;;;;23.92;4.72;;;;;;;;;;5084618;28;20052;-58
2023/01/26 11:43:56;;;;;;;22.38;4.88;;;;;;;;;;5080250;28;20032;-58
2023/01/26 11:46:22;;;;;;;16.58;3.60;;;;;;;;;;5080784;28;20032;-59
2023/01/26 11:48:48;;;;;;;19.95;4.20;;;;;;;;;;5053622;28;20106;-58
2023/01/26 11:51:38;;;;;;;17.83;3.75;;;;;;;;;;5078805;28;20040;-58
2023/01/26 11:54:04;;;;;;;25.52;5.30;;;;;;;;;;5067197;28;20526;-58
2023/01/26 11:56:33;;;;;;;29.35;4.25;;;;;;;;;;5081461;28;20043;-59
2023/01/26 11:59:17;;;;;;;19.67;3.28;;;;;;;;;;5082044;28;20325;-58
2023/01/26 12:01:56;;;;;;;16.10;3.25;;;;;;;;;;5064977;28;20060;-57
2023/01/26 12:04:24;;;;;;;24.33;4.65;;;;;;;;;;5076786;28;20048;-58
2023/01/26 12:07:10;;;;;;;20.85;3.60;;;;;;;;;;5062016;28;20028;-58
2023/01/26 12:09:41;;;;;;;15.85;3.30;;;;;;;;;;5068849;28;20425;-59
2023/01/26 12:12:14;;;;;;;19.17;3.83;;;;;;;;;;5095765;28;20047;-58
2023/01/26 12:14:52;;;;;;;11.57;2.80;;;;;;;;;;5069827;28;20719;-58
2023/01/26 12:17:29;;;;;;;20.60;3.20;;;;;;;;;;5079640;28;20044;-58
2023/01/26 12:20:05;;;;;;;18.13;3.03;;;;;;;;;;5064323;28;20039;-58
2023/01/26 12:22:34;;;;;;;20.27;3.55;;;;;;;;;;5083666;28;20043;-58
2023/01/26 12:25:23;;;;;;;18.48;2.95;;;;;;;;;;5083731;28;20020;-58
2023/01/26 12:27:58;;;;;;;18.20;3.15;;;;;;;;;;5080044;28;20048;-59
2023/01/26 12:30:24;;;;;;;18.10;3.45;;;;;;;;;;5077554;28;20036;-59
2023/01/26 12:32:51;;;;;;;22.98;4.55;;;;;;;;;;5078677;28;20053;-59
2023/01/26 12:35:27;;;;;;;18.17;3.53;;;;;;;;;;5080860;28;20036;-58
2023/01/26 12:37:58;;;;;;;17.75;3.33;;;;;;;;;;5058261;28;20066;-58
2023/01/26 12:40:36;;;;;;;19.17;3.30;;;;;;;;;;5082427;28;20486;-58
2023/01/26 12:43:23;;;;;;;13.07;2.35;;;;;;;;;;5054923;28;20048;-58
2023/01/26 12:45:58;;;;;;;16.70;3.13;;;;;;;;;;5079185;28;20127;-58
2023/01/26 12:48:30;;;;;;;16.70;3.05;;;;;;;;;;5084007;28;20090;-58
2023/01/26 12:51:04;;;;;;;14.57;3.15;;;;;;;;;;5081217;28;20054;-58
2023/01/26 12:54:03;;;;;;;18.52;3.25;;;;;;;;;;5079987;28;20032;-58
2023/01/26 12:56:39;;;;;;;12.93;2.33;;;;;;;;;;5050423;28;20049;-58
2023/01/26 12:59:11;;;;;;;10.98;2.50;;;;;;;;;;5081618;28;20036;-58
2023/01/26 13:01:39;;;;;;;15.35;2.60;;;;;;;;;;5061854;28;20091;-58
2023/01/26 13:04:08;;;;;;;14.65;2.42;;;;;;;;;;5074167;28;20033;-57
2023/01/26 13:06:34;;;;;;;13.77;2.20;;;;;;;;;;5073827;28;20041;-58
2023/01/26 13:09:18;;;;;;;12.82;2.55;;;;;;;;;;5073970;28;20119;-58
2023/01/26 13:11:46;;;;;;;14.95;2.58;;;;;;;;;;5061207;28;20055;-58
2023/01/26 13:14:41;;;;;;;11.55;2.38;;;;;;;;;;5073732;28;20044;-58
2023/01/26 13:17:07;;;;;;;;;;;;;;;;;;4992779;28;20133;-59
2023/01/26 13:19:50;;;;;;;11.50;1.95;;;;;;;;;;5080873;28;20003;-57
2023/01/26 13:22:22;;;;;;;8.02;2.20;;;;;;;;;;5078382;28;20090;-59
2023/01/26 13:24:48;;;;;;;13.38;2.53;;;;;;;;;;5080257;28;20069;-58
2023/01/26 13:27:33;;;;;;;12.38;2.25;;;;;;;;;;5083645;28;20036;-58
2023/01/26 13:29:59;;;;;;;;;;;;;;;;;;5063886;28;20050;-58
2023/01/26 13:32:25;;;;;;;11.77;2.55;;;;;;;;;;5065226;28;19920;-60
2023/01/26 13:34:59;;;;;;;15.38;2.72;;;;;;;;;;5076512;28;20135;-60
2023/01/26 13:37:44;;;;;;;13.60;2.42;;;;;;;;;;5078744;28;20037;-59
2023/01/26 13:40:28;;;;;;;9.68;2.15;;;;;;;;;;5076703;28;20052;-58
2023/01/26 13:43:07;;;;;;;14.38;2.35;;;;;;;;;;5069977;28;20056;-58
2023/01/26 13:45:38;;;;;;;9.20;2.15;;;;;;;;;;5079837;28;20025;-57
2023/01/26 13:48:09;;;;;;;15.75;2.65;;;;;;;;;;5079262;28;20041;-58
2023/01/26 13:50:36;;;;;;;12.55;2.70;;;;;;;;;;5078126;28;20051;-57
2023/01/26 13:53:22;;;;;;;11.82;1.90;;;;;;;;;;5078902;28;20043;-60
2023/01/26 13:55:51;;;;;;;11.32;1.90;;;;;;;;;;5079175;28;20059;-60
2023/01/26 13:58:17;;;;;;;12.27;2.50;;;;;;;;;;5061441;28;20035;-58
2023/01/26 14:01:05;;;;;;;10.85;2.22;;;;;;;;;;5081160;28;20433;-57
2023/01/26 14:03:31;;;;;;;10.02;2.00;;;;;;;;;;5078658;28;20095;-60
2023/01/26 14:05:57;;;;;;;10.25;2.42;;;;;;;;;;5079725;28;20438;-60
2023/01/26 14:08:23;;;;;;;8.32;1.90;;;;;;;;;;5059690;28;20129;-58
2023/01/26 14:10:51;;;;;;;12.30;2.17;;;;;;;;;;5064165;28;20044;-56
2023/01/26 14:13:28;;;;;;;12.43;2.15;;;;;;;;;;5059904;28;20482;-60
2023/01/26 14:15:55;;;;;;;11.52;2.40;;;;;;;;;;5075964;28;20036;-58
2023/01/26 14:18:21;;;;;;;9.52;1.85;;;;;;;;;;5080041;28;20333;-59
2023/01/26 14:20:47;;;;;;;9.88;1.80;;;;;;;;;;5075646;28;20422;-58
2023/01/26 14:23:17;;;;;;;7.93;1.85;;;;;;;;;;5080454;28;20032;-59
2023/01/26 14:25:46;;;;;;;9.77;1.95;;;;;;;;;;5066917;28;20383;-58
2023/01/26 14:28:15;;;;;;;11.45;1.75;;;;;;;;;;5080066;28;20308;-59
2023/01/26 14:30:41;;;;;;;7.53;1.60;;;;;;;;;;5082729;28;20605;-58
2023/01/26 14:33:11;;;;;;;12.57;2.58;;;;;;;;;;5081871;28;20475;-59
2023/01/26 14:35:38;;;;;;;8.07;1.98;;;;;;;;;;5064780;28;20127;-58
2023/01/26 14:38:11;;;;;;;10.10;1.70;;;;;;;;;;5082442;28;20047;-59
2023/01/26 14:40:43;;;;;;;9.98;1.70;;;;;;;;;;5061462;28;20181;-59
2023/01/26 14:43:10;;;;;;;9.18;1.77;;;;;;;;;;5082652;28;20375;-59
2023/01/26 14:45:37;;;;;;;9.05;1.55;;;;;;;;;;5082548;28;20028;-58
2023/01/26 14:48:06;;;;;;;9.85;2.05;;;;;;;;;;5082493;28;20425;-59
2023/01/26 14:50:32;;;;;;;9.48;3.85;;;;;;;;;;5079696;28;20038;-58
2023/01/26 14:52:58;;;;;;;8.02;1.60;;;;;;;;;;5084250;28;20067;-60
2023/01/26 14:55:27;;;;;;;12.85;2.10;;;;;;;;;;5080671;28;20086;-59
2023/01/26 14:57:55;;;;;;;13.70;1.77;;;;;;;;;;5079464;28;20040;-58
2023/01/26 15:00:39;;;;;;;11.48;1.85;;;;;;;;;;5081474;28;20060;-60
2023/01/26 15:03:06;;;;;;;9.77;2.30;;;;;;;;;;5078909;28;20059;-60
2023/01/26 15:05:37;;;;;;;8.25;1.80;;;;;;;;;;5080584;28;20271;-58
2023/01/26 15:08:17;;;;;;;8.27;2.33;;;;;;;;;;5083020;28;20410;-57
2023/01/26 15:13:51;;;;;;;11.65;1.98;;;;;;;;;;5046214;28;20047;-58
2023/01/26 15:16:18;;;;;;;10.63;2.10;;;;;;;;;;5069050;28;20066;-59
2023/01/26 15:18:57;;;;;;;9.80;1.88;;;;;;;;;;5080686;28;20371;-58
2023/01/26 15:21:27;;;;;;;10.80;1.90;;;;;;;;;;5078297;28;20051;-58
2023/01/26 15:23:54;;;;;;;10.38;2.17;;;;;;;;;;5073365;28;20115;-59
2023/01/26 15:26:31;;;;;;;13.65;1.92;;;;;;;;;;5083660;28;20523;-59